Ana Sayfa
METAR-TAF:

METAR-TAF

Havaalanları :

Town MET

Windhoek, Namibya

Enlem: 22-34S, Boylam: 017-06E, yükseklik: 1725 m

Güncel hava durumu gözlemi

Rapor saat 14:00 UTC de 41 dakika önce yapıldı.
Rüzgar batıdan 11 kt ve 22 kt'a kadar ani rüzgarlar
Sıcaklık 29°C
Nem 2%
Basınç 1020 hPa
Görüş mesafesi 10 km veya daha fazla
1500 m altında bulut yok ve kümülonimbus yok

METAR: FYWW 151400Z 26011G22KT CAVOK 29/M24 Q1020

Saat: 16:41 (14:41 UTC)


TAF: eksik

4.000'den fazla havaalanı için hava durumu gözlemleri ve tahminleri (METAR ve TAF raporları).

Kullanılabilir istasyonlar harita üzerinde sarı ve kırmızı noktalarla gösterilir.

İstasyonun adını görmek için fareyi noktanın üzerinde gezdirin.

Sonrasında hava gözlem ve tahminlerini görmek için tıklayın.

Haritayı değiştirmek için: yaklaştırmak için siyah artı işaretli yeşil düğmeye ve uzaklaştırmak için de eksi işaretli düğmeye hızla tıklayın; bitişik haritalar için yeşil okları kullanın.


METAR-TAF: